Time;durP1;ratioP1;P1;durP2;ratioP2;P2;SDS_P1;SDS_P2;PMS_P1;PMS_P2;Temp;Humidity;BMP_temperature;BMP_pressure;BME280_temperature;BME280_humidity;BME280_pressure;Samples;Min_cycle;Max_cycle;Signal;HPM_P1;HPM_P2
2022/10/12 00:00:52;;;;;;;8.10;6.97;;;10.20;99.90;;;;;;6289301;22;20007;-74
2022/10/12 00:03:18;;;;;;;9.43;7.32;;;10.20;99.90;;;;;;6245186;22;1097901;-74
2022/10/12 00:05:44;;;;;;;8.30;6.88;;;10.30;99.90;;;;;;6292768;22;20007;-74
2022/10/12 00:08:10;;;;;;;12.45;7.80;;;10.30;99.90;;;;;;6290578;22;20814;-74
2022/10/12 00:10:40;;;;;;;7.38;6.22;;;10.30;99.90;;;;;;6286154;22;20015;-74
2022/10/12 00:13:06;;;;;;;5.15;4.68;;;10.40;99.90;;;;;;6276987;22;20794;-74
2022/10/12 00:15:38;;;;;;;6.40;4.82;;;10.20;99.90;;;;;;6258688;22;20008;-75
2022/10/12 00:18:04;;;;;;;4.82;4.43;;;10.10;99.90;;;;;;6288288;22;20025;-75
2022/10/12 00:20:30;;;;;;;6.38;4.72;;;9.90;99.90;;;;;;6291966;22;20014;-74
2022/10/12 00:22:55;;;;;;;5.78;5.25;;;9.80;99.90;;;;;;6291557;22;20078;-74
2022/10/12 00:25:21;;;;;;;8.23;5.22;;;9.70;99.90;;;;;;6293004;22;20003;-73
2022/10/12 00:27:47;;;;;;;7.82;6.13;;;9.80;99.90;;;;;;6291279;22;20438;-64
2022/10/12 00:30:13;;;;;;;7.07;6.38;;;9.80;99.90;;;;;;6291184;22;20014;-64
2022/10/12 00:32:38;;;;;;;7.03;6.00;;;9.80;99.90;;;;;;6293031;22;20007;-64
2022/10/12 00:35:04;;;;;;;6.82;6.13;;;9.90;99.90;;;;;;6292392;22;20452;-64
2022/10/12 00:37:30;;;;;;;7.78;6.82;;;9.90;99.90;;;;;;6293833;22;20080;-64
2022/10/12 00:39:56;;;;;;;10.75;6.38;;;9.90;99.90;;;;;;6286844;22;20490;-64
2022/10/12 00:42:21;;;;;;;7.45;6.53;;;10.00;99.90;;;;;;6288127;22;20571;-64
2022/10/12 00:44:49;;;;;;;10.15;7.53;;;10.10;99.90;;;;;;6261513;22;20011;-64
2022/10/12 00:47:18;;;;;;;9.20;6.97;;;10.10;99.90;;;;;;6289879;22;20011;-64
2022/10/12 00:49:53;;;;;;;7.70;6.00;;;10.20;99.90;;;;;;6291880;22;20010;-63
2022/10/12 00:52:24;;;;;;;5.57;4.97;;;10.20;99.90;;;;;;6292805;22;20502;-64
2022/10/12 00:54:52;;;;;;;10.95;5.50;;;10.20;99.90;;;;;;6291775;22;20464;-64
2022/10/12 00:57:18;;;;;;;8.13;5.00;;;10.10;99.90;;;;;;6291330;22;20011;-64
2022/10/12 01:00:01;;;;;;;8.15;5.40;;;10.00;99.90;;;;;;6290427;22;20105;-64
2022/10/12 01:02:29;;;;;;;6.90;4.97;;;10.10;99.90;;;;;;6288568;22;20070;-64
2022/10/12 01:04:56;;;;;;;5.75;4.78;;;10.10;99.90;;;;;;6290176;22;19999;-64
2022/10/12 01:07:21;;;;;;;6.47;5.88;;;10.10;99.90;;;;;;6291721;22;20007;-64
2022/10/12 01:09:47;;;;;;;9.07;6.40;;;10.10;99.90;;;;;;6260587;22;20014;-63
2022/10/12 01:12:15;;;;;;;7.80;6.80;;;10.10;99.90;;;;;;6290925;22;20046;-63
2022/10/12 01:14:40;;;;;;;9.82;6.78;;;10.10;99.90;;;;;;6286912;22;20030;-63
2022/10/12 01:17:44;;;;;;;10.27;7.07;;;10.20;99.90;;;;;;6290463;22;20475;-63
2022/10/12 01:20:38;;;;;;;7.95;7.13;;;10.20;99.90;;;;;;6292752;22;20003;-64
2022/10/12 01:23:18;;;;;;;10.57;7.57;;;10.30;99.90;;;;;;6290874;22;20011;-64
2022/10/12 01:26:19;;;;;;;7.50;6.60;;;10.40;99.90;;;;;;6294580;22;20011;-64
2022/10/12 01:29:23;;;;;;;11.32;6.55;;;10.50;99.90;;;;;;6293700;22;20384;-74
2022/10/12 01:31:56;;;;;;;8.02;6.50;;;10.60;99.90;;;;;;6293863;22;20069;-74
2022/10/12 01:34:33;;;;;;;9.10;6.85;;;10.60;99.90;;;;;;6293120;22;20004;-74
2022/10/12 01:37:10;;;;;;;9.32;6.95;;;10.60;99.90;;;;;;6266565;22;20043;-74
2022/10/12 01:39:43;;;;;;;9.55;6.93;;;10.70;99.90;;;;;;6296082;22;20057;-74
2022/10/12 01:42:31;;;;;;;10.68;7.78;;;10.60;99.90;;;;;;6292854;22;20106;-74
2022/10/12 01:45:17;;;;;;;9.88;8.02;;;10.70;99.90;;;;;;6268174;22;20053;-74
2022/10/12 01:47:51;;;;;;;9.43;7.28;;;10.60;99.90;;;;;;6265961;22;20007;-64
2022/10/12 01:50:20;;;;;;;11.45;7.95;;;10.70;99.90;;;;;;6295510;22;20010;-64
2022/10/12 01:53:19;;;;;;;11.52;8.35;;;10.70;99.90;;;;;;6293627;22;20343;-64
2022/10/12 01:55:48;;;;;;;10.63;7.70;;;10.70;99.90;;;;;;6294288;22;20004;-64
2022/10/12 01:58:48;;;;;;;10.18;9.07;;;10.70;99.90;;;;;;6294987;22;20007;-64
2022/10/12 02:01:40;;;;;;;12.63;9.02;;;10.70;99.90;;;;;;6295255;22;20022;-64
2022/10/12 02:04:10;;;;;;;13.68;9.27;;;10.70;99.90;;;;;;6297194;22;20033;-64
2022/10/12 02:06:45;;;;;;;13.25;8.90;;;10.70;99.90;;;;;;6296442;22;19996;-64
2022/10/12 02:09:25;;;;;;;10.70;9.05;;;10.80;99.90;;;;;;6294543;22;20015;-64
2022/10/12 02:11:56;;;;;;;10.40;8.35;;;10.80;99.90;;;;;;6295416;22;20145;-64
2022/10/12 02:14:34;;;;;;;11.15;7.97;;;10.90;99.90;;;;;;6294309;22;20010;-64
2022/10/12 02:17:03;;;;;;;8.60;7.70;;;10.90;99.90;;;;;;6264318;22;19999;-64
2022/10/12 02:19:34;;;;;;;10.77;7.95;;;11.00;99.90;;;;;;6295060;22;20761;-64
2022/10/12 02:22:03;;;;;;;8.90;8.00;;;11.10;99.90;;;;;;6294814;22;20671;-64
2022/10/12 02:24:31;;;;;;;9.90;8.90;;;11.20;99.90;;;;;;6294128;22;20845;-64
2022/10/12 02:26:59;;;;;;;14.32;8.77;;;11.20;99.90;;;;;;6292824;22;20528;-64
2022/10/12 02:29:34;;;;;;;9.80;8.38;;;11.30;99.90;;;;;;6295282;22;20015;-64
2022/10/12 02:32:12;;;;;;;11.20;8.43;;;11.30;99.90;;;;;;6295099;22;20019;-64
2022/10/12 02:35:07;;;;;;;9.43;8.43;;;11.40;99.90;;;;;;6294160;22;20044;-64
2022/10/12 02:37:46;;;;;;;9.30;8.30;;;11.40;99.90;;;;;;6252081;22;20011;-64
2022/10/12 02:40:35;;;;;;;13.13;9.10;;;11.50;99.90;;;;;;6293576;22;20092;-64
2022/10/12 02:43:18;;;;;;;10.95;8.90;;;11.50;99.90;;;;;;6266270;22;20386;-64
2022/10/12 02:45:46;;;;;;;13.50;9.65;;;11.50;99.90;;;;;;6292074;22;20468;-64
2022/10/12 02:48:17;;;;;;;12.35;10.90;;;11.60;99.90;;;;;;6290830;22;20723;-64
2022/10/12 02:50:44;;;;;;;17.10;12.60;;;11.60;99.90;;;;;;6290706;22;20122;-64
2022/10/12 02:53:11;;;;;;;13.90;11.55;;;11.60;99.90;;;;;;6293447;22;20106;-64
2022/10/12 02:55:45;;;;;;;12.75;10.05;;;11.60;99.90;;;;;;6293582;22;20003;-63
2022/10/12 02:58:10;;;;;;;14.95;10.50;;;11.60;99.90;;;;;;6294579;22;20094;-64
2022/10/12 03:00:36;;;;;;;13.02;11.73;;;11.60;99.90;;;;;;6291713;22;20035;-64
2022/10/12 03:03:01;;;;;;;13.40;10.90;;;11.60;99.90;;;;;;6294645;22;20015;-74
2022/10/12 03:05:27;;;;;;;10.63;9.52;;;11.60;99.90;;;;;;6295416;22;20457;-73
2022/10/12 03:07:52;;;;;;;11.70;9.07;;;11.60;99.90;;;;;;6294232;22;19999;-73
2022/10/12 03:10:18;;;;;;;11.35;9.10;;;11.60;99.90;;;;;;6294250;22;20082;-73
2022/10/12 03:12:43;;;;;;;9.63;8.63;;;11.60;99.90;;;;;;6295379;22;20003;-73
2022/10/12 03:15:09;;;;;;;12.40;9.55;;;11.60;99.90;;;;;;6295195;22;20048;-73
2022/10/12 03:17:35;;;;;;;12.25;8.75;;;11.60;99.90;;;;;;6295428;22;20635;-73
2022/10/12 03:20:00;;;;;;;11.13;9.60;;;11.70;99.90;;;;;;6293725;22;20021;-74
2022/10/12 03:22:26;;;;;;;10.80;8.93;;;11.70;99.90;;;;;;6294519;22;20003;-75
2022/10/12 03:24:52;;;;;;;10.77;9.02;;;11.80;99.90;;;;;;6293460;22;20491;-74
2022/10/12 03:27:17;;;;;;;11.15;9.98;;;11.80;99.90;;;;;;6267544;22;20011;-74
2022/10/12 03:29:43;;;;;;;11.00;8.88;;;11.80;99.90;;;;;;6292471;22;20827;-72
2022/10/12 03:32:08;;;;;;;12.25;10.98;;;11.80;99.90;;;;;;6292685;22;20380;-73
2022/10/12 03:34:34;;;;;;;10.30;9.30;;;11.80;99.90;;;;;;6294296;22;20632;-73
2022/10/12 03:37:00;;;;;;;14.05;11.55;;;11.70;99.90;;;;;;6293206;22;20240;-73
2022/10/12 03:39:25;;;;;;;14.82;11.35;;;11.70;99.90;;;;;;6292854;22;20391;-74
2022/10/12 03:41:51;;;;;;;11.57;10.35;;;11.60;99.90;;;;;;6291244;22;20000;-74
2022/10/12 03:44:16;;;;;;;12.93;9.90;;;11.50;99.90;;;;;;6291968;22;20011;-74
2022/10/12 03:46:42;;;;;;;15.43;12.30;;;11.40;99.90;;;;;;6290265;22;20495;-74
2022/10/12 03:49:07;;;;;;;12.55;10.65;;;11.40;99.90;;;;;;6290858;22;20060;-74
2022/10/12 03:51:33;;;;;;;17.48;10.35;;;11.40;99.90;;;;;;6295338;22;20684;-75
2022/10/12 03:53:58;;;;;;;14.52;10.70;;;11.50;99.90;;;;;;6292758;22;20003;-74
2022/10/12 03:56:24;;;;;;;12.85;10.02;;;11.50;99.90;;;;;;6289652;22;20064;-74
2022/10/12 03:58:49;;;;;;;12.77;11.30;;;11.50;99.90;;;;;;6291136;22;20007;-74
2022/10/12 04:01:15;;;;;;;12.45;10.48;;;11.50;99.90;;;;;;6291961;22;20007;-64
2022/10/12 04:03:41;;;;;;;11.73;8.90;;;11.30;99.90;;;;;;6291840;22;20026;-64
2022/10/12 04:06:06;;;;;;;9.18;8.23;;;11.20;99.90;;;;;;6288947;22;20011;-64
2022/10/12 04:08:32;;;;;;;9.60;8.18;;;11.10;99.90;;;;;;6292547;22;20010;-64
2022/10/12 04:10:57;;;;;;;10.77;8.60;;;11.10;99.90;;;;;;6292628;22;20017;-64
2022/10/12 04:13:23;;;;;;;10.88;8.95;;;11.20;99.90;;;;;;6295507;22;20491;-64
2022/10/12 04:15:49;;;;;;;10.90;8.93;;;11.20;99.90;;;;;;6293506;22;20011;-64
2022/10/12 04:18:14;;;;;;;9.02;8.13;;;11.30;99.90;;;;;;6289593;22;19999;-64
2022/10/12 04:20:40;;;;;;;9.88;8.50;;;11.30;99.90;;;;;;6289070;22;20014;-64
2022/10/12 04:23:05;;;;;;;10.30;7.57;;;11.30;99.90;;;;;;6290848;22;20010;-64
2022/10/12 04:25:31;;;;;;;9.60;8.60;;;11.40;99.90;;;;;;6289802;22;20006;-64
2022/10/12 04:27:57;;;;;;;8.98;8.02;;;11.30;99.90;;;;;;6290161;22;20030;-64
2022/10/12 04:30:22;;;;;;;8.90;7.95;;;11.30;99.90;;;;;;6289340;22;20011;-64
2022/10/12 04:32:48;;;;;;;8.30;7.25;;;11.30;99.90;;;;;;6290960;22;20008;-64
2022/10/12 04:35:13;;;;;;;9.18;7.60;;;11.30;99.90;;;;;;6290432;22;20011;-64
2022/10/12 04:37:39;;;;;;;9.00;7.88;;;11.30;99.90;;;;;;6292490;22;20007;-73
2022/10/12 04:40:05;;;;;;;12.02;7.78;;;11.30;99.90;;;;;;6291186;22;19999;-73
2022/10/12 04:42:31;;;;;;;8.20;7.00;;;11.30;99.90;;;;;;6266108;22;20482;-73
2022/10/12 04:44:56;;;;;;;8.82;7.47;;;11.40;99.90;;;;;;6290391;22;20003;-73
2022/10/12 04:47:22;;;;;;;9.10;7.72;;;11.40;99.90;;;;;;6290617;22;20275;-73
2022/10/12 04:49:47;;;;;;;9.70;7.80;;;11.50;99.90;;;;;;6290104;22;20003;-73
2022/10/12 04:52:13;;;;;;;9.20;7.80;;;11.40;99.90;;;;;;6288699;22;20022;-73
2022/10/12 04:54:39;;;;;;;10.32;7.63;;;11.50;99.90;;;;;;6286954;22;20011;-73
2022/10/12 04:57:04;;;;;;;10.32;7.65;;;11.50;99.90;;;;;;6287515;22;20072;-73
2022/10/12 04:59:30;;;;;;;9.80;8.02;;;11.50;99.90;;;;;;6288622;22;20011;-71
2022/10/12 05:01:55;;;;;;;16.42;8.20;;;11.60;99.90;;;;;;6287625;22;20003;-68
2022/10/12 05:04:21;;;;;;;16.20;7.93;;;11.70;99.90;;;;;;6292228;22;20008;-69
2022/10/12 05:06:47;;;;;;;9.68;7.45;;;11.70;99.90;;;;;;6295487;22;20448;-70
2022/10/12 05:09:12;;;;;;;7.70;6.43;;;11.70;99.90;;;;;;6292745;22;20292;-69
2022/10/12 05:11:38;;;;;;;8.50;7.28;;;11.70;99.90;;;;;;6294908;22;20015;-71
2022/10/12 05:14:04;;;;;;;8.60;7.32;;;11.70;99.90;;;;;;6293057;22;20090;-70
2022/10/12 05:16:29;;;;;;;8.73;7.93;;;11.70;99.90;;;;;;6295007;22;20072;-70
2022/10/12 05:18:55;;;;;;;8.50;7.50;;;11.60;99.90;;;;;;6296047;22;19999;-72
2022/10/12 05:21:20;;;;;;;11.45;8.32;;;11.60;99.90;;;;;;6294985;22;20003;-72
2022/10/12 05:23:51;;;;;;;9.38;7.75;;;11.60;99.90;;;;;;6295571;22;20003;-71
2022/10/12 05:26:17;;;;;;;8.52;7.63;;;11.60;99.90;;;;;;6294861;22;20007;-72
2022/10/12 05:28:42;;;;;;;8.07;7.00;;;11.70;99.90;;;;;;6291998;22;19999;-72
2022/10/12 05:31:08;;;;;;;9.38;7.57;;;11.70;99.90;;;;;;6292205;22;20019;-70
2022/10/12 05:33:34;;;;;;;9.25;7.95;;;11.80;99.90;;;;;;6297012;22;20498;-71
2022/10/12 05:35:59;;;;;;;12.10;7.65;;;11.80;99.90;;;;;;6295728;22;20010;-73
2022/10/12 05:38:25;;;;;;;7.75;7.05;;;11.90;99.90;;;;;;6296182;22;20064;-74
2022/10/12 05:40:51;;;;;;;8.82;7.18;;;11.90;99.90;;;;;;6293758;22;20007;-75
2022/10/12 05:43:16;;;;;;;9.48;7.70;;;12.00;99.90;;;;;;6298382;22;20003;-75
2022/10/12 05:45:42;;;;;;;8.43;6.97;;;12.00;99.90;;;;;;6267012;22;20007;-75
2022/10/12 05:48:08;;;;;;;10.25;7.82;;;12.10;99.90;;;;;;6296182;22;20329;-74
2022/10/12 05:50:33;;;;;;;8.88;7.97;;;12.10;99.90;;;;;;6295405;22;20064;-73
2022/10/12 05:52:59;;;;;;;10.73;8.07;;;12.10;99.90;;;;;;6296050;22;20015;-73
2022/10/12 05:55:25;;;;;;;10.32;7.97;;;12.10;99.90;;;;;;6295844;22;20421;-71
2022/10/12 05:57:50;;;;;;;14.20;10.27;;;12.10;99.90;;;;;;6300110;22;20115;-71
2022/10/12 06:00:16;;;;;;;18.27;14.15;;;12.20;99.90;;;;;;6305309;22;20521;-72
2022/10/12 06:02:42;;;;;;;14.38;11.88;;;12.20;99.90;;;;;;6304767;22;20015;-72
2022/10/12 06:05:08;;;;;;;10.15;8.15;;;12.20;99.90;;;;;;6305559;22;20056;-73
2022/10/12 06:07:33;;;;;;;11.23;8.88;;;12.20;99.90;;;;;;6307804;22;20003;-72
2022/10/12 06:09:59;;;;;;;10.10;9.00;;;12.20;99.90;;;;;;6307222;22;20007;-73
2022/10/12 06:12:25;;;;;;;12.32;9.70;;;12.20;99.90;;;;;;6305003;22;20141;-72
2022/10/12 06:14:51;;;;;;;14.48;9.48;;;12.30;99.90;;;;;;6308378;22;20026;-73
2022/10/12 06:17:17;;;;;;;19.10;9.05;;;12.30;99.90;;;;;;6307091;22;20015;-73
2022/10/12 06:19:42;;;;;;;13.25;9.50;;;12.40;99.90;;;;;;6277920;22;20003;-72
2022/10/12 06:22:08;;;;;;;10.27;9.05;;;12.40;99.90;;;;;;6281381;22;20088;-72
2022/10/12 06:24:33;;;;;;;10.65;8.27;;;12.40;99.90;;;;;;6280766;22;20015;-72
2022/10/12 06:26:59;;;;;;;10.82;9.00;;;12.40;99.90;;;;;;6308158;22;20015;-72
2022/10/12 06:29:25;;;;;;;12.98;9.18;;;12.30;99.90;;;;;;6309311;22;20007;-72
2022/10/12 06:31:51;;;;;;;10.40;9.20;;;12.40;99.90;;;;;;6308337;22;20038;-72
2022/10/12 06:34:16;;;;;;;12.75;11.00;;;12.40;99.90;;;;;;6307941;22;20103;-72
2022/10/12 06:36:42;;;;;;;12.00;10.30;;;12.50;99.90;;;;;;6280569;22;20011;-72
2022/10/12 06:39:08;;;;;;;10.52;8.70;;;12.50;99.90;;;;;;6307779;22;20030;-73
2022/10/12 06:41:34;;;;;;;9.98;8.77;;;12.60;99.90;;;;;;6306923;22;20003;-72
2022/10/12 06:44:00;;;;;;;10.75;8.40;;;12.60;99.90;;;;;;6308232;22;20107;-72
2022/10/12 06:46:25;;;;;;;9.80;8.82;;;12.60;99.90;;;;;;6306925;22;20011;-73
2022/10/12 06:48:51;;;;;;;11.48;8.80;;;12.60;99.90;;;;;;6301432;22;20454;-72
2022/10/12 06:51:16;;;;;;;9.48;8.57;;;12.60;99.90;;;;;;6296107;22;20072;-72
2022/10/12 06:53:42;;;;;;;10.82;8.23;;;12.70;99.90;;;;;;6296766;22;20055;-72
2022/10/12 06:56:09;;;;;;;9.23;8.30;;;12.70;99.90;;;;;;6296786;22;20387;-72
2022/10/12 06:58:35;;;;;;;10.63;8.85;;;12.80;99.90;;;;;;6296874;22;20003;-72
2022/10/12 07:01:05;;;;;;;11.23;9.45;;;12.80;99.90;;;;;;6296419;22;20086;-72
2022/10/12 07:03:31;;;;;;;12.00;9.23;;;12.90;99.90;;;;;;6296667;22;20023;-72
2022/10/12 07:06:12;;;;;;;10.35;9.35;;;12.90;99.90;;;;;;6298969;22;20014;-72
2022/10/12 07:08:39;;;;;;;17.10;8.85;;;13.00;99.90;;;;;;6298755;22;20007;-72
2022/10/12 07:11:07;;;;;;;13.88;10.10;;;13.00;99.90;;;;;;6296365;22;20022;-73
2022/10/12 07:13:34;;;;;;;14.50;10.60;;;13.10;99.90;;;;;;6298093;22;19999;-72
2022/10/12 07:15:59;;;;;;;10.20;9.18;;;13.20;99.90;;;;;;6295044;22;20433;-73
2022/10/12 07:18:25;;;;;;;12.27;10.35;;;13.20;99.90;;;;;;6297588;22;20072;-73
2022/10/12 07:20:51;;;;;;;10.70;9.68;;;13.20;99.90;;;;;;6296684;22;20328;-72
2022/10/12 07:23:17;;;;;;;12.02;10.15;;;13.30;99.90;;;;;;6297754;22;20018;-73
2022/10/12 07:25:49;;;;;;;12.45;11.15;;;13.30;99.90;;;;;;6292097;22;20072;-71
2022/10/12 07:28:16;;;;;;;14.15;10.70;;;13.30;99.90;;;;;;6295315;22;20004;-73
2022/10/12 07:30:42;;;;;;;13.32;11.93;;;13.30;99.90;;;;;;6294332;22;20030;-72
2022/10/12 07:33:07;;;;;;;16.40;11.75;;;13.40;99.90;;;;;;6298267;22;20010;-72
2022/10/12 07:35:33;;;;;;;14.13;12.60;;;13.40;99.90;;;;;;6296107;22;20057;-73
2022/10/12 07:37:59;;;;;;;15.05;13.40;;;13.50;99.90;;;;;;6296014;22;20117;-73
2022/10/12 07:40:25;;;;;;;14.10;12.63;;;13.50;99.90;;;;;;6295543;22;20034;-73
2022/10/12 07:42:51;;;;;;;14.50;13.07;;;13.60;99.90;;;;;;6294396;22;19999;-72
2022/10/12 07:45:17;;;;;;;14.40;11.50;;;13.60;99.90;;;;;;6295586;22;20011;-73
2022/10/12 07:47:43;;;;;;;13.10;11.50;;;13.60;99.90;;;;;;6297693;22;20421;-72
2022/10/12 07:50:09;;;;;;;12.15;10.80;;;13.60;99.90;;;;;;6269898;22;20423;-73
2022/10/12 07:52:34;;;;;;;11.77;10.57;;;13.60;99.90;;;;;;6296189;22;20038;-73
2022/10/12 07:55:00;;;;;;;11.98;10.05;;;13.70;99.90;;;;;;6297264;22;20012;-73
2022/10/12 07:57:25;;;;;;;11.55;10.35;;;13.70;99.90;;;;;;6295822;22;20060;-73
2022/10/12 07:59:51;;;;;;;12.73;10.43;;;13.80;99.90;;;;;;6295832;22;20037;-74
2022/10/12 08:02:17;;;;;;;12.45;10.43;;;13.80;99.90;;;;;;6296045;22;20015;-73
2022/10/12 08:04:42;;;;;;;11.02;9.93;;;13.90;99.90;;;;;;6297380;22;20072;-73
2022/10/12 08:07:08;;;;;;;11.77;10.38;;;13.90;99.90;;;;;;6296237;22;20006;-73
2022/10/12 08:09:35;;;;;;;15.60;10.50;;;14.00;99.90;;;;;;6294729;22;20496;-73
2022/10/12 08:12:01;;;;;;;11.63;10.52;;;14.00;99.90;;;;;;6297373;22;20022;-73
2022/10/12 08:14:27;;;;;;;12.32;10.95;;;14.00;99.90;;;;;;6293480;22;20003;-73
2022/10/12 08:16:52;;;;;;;13.65;11.93;;;14.10;99.90;;;;;;6295836;22;20011;-73
2022/10/12 08:19:18;;;;;;;17.65;11.07;;;14.10;99.90;;;;;;6294756;22;20292;-73
2022/10/12 08:21:44;;;;;;;17.75;11.32;;;14.10;99.90;;;;;;6296125;22;20070;-73
2022/10/12 08:24:10;;;;;;;16.67;11.70;;;14.20;99.90;;;;;;6268702;22;20014;-74
2022/10/12 08:26:36;;;;;;;14.43;11.00;;;14.20;99.90;;;;;;6294063;22;20229;-65
2022/10/12 08:29:03;;;;;;;12.75;11.35;;;14.30;99.90;;;;;;6295871;22;20071;-65
2022/10/12 08:31:29;;;;;;;12.15;10.95;;;14.30;99.90;;;;;;6291851;22;20007;-65
2022/10/12 08:33:56;;;;;;;11.00;9.90;;;14.30;99.90;;;;;;6265357;22;20007;-66
2022/10/12 08:36:22;;;;;;;11.88;10.68;;;14.30;99.90;;;;;;6293773;22;19996;-66
2022/10/12 08:38:54;;;;;;;12.95;10.82;;;14.40;99.90;;;;;;6295145;22;20010;-66
2022/10/12 08:41:32;;;;;;;16.73;11.20;;;14.50;99.90;;;;;;6294043;22;20070;-66
2022/10/12 08:43:57;;;;;;;12.00;10.80;;;14.50;99.90;;;;;;6293983;22;20018;-66
2022/10/12 08:46:25;;;;;;;13.57;11.52;;;14.50;99.90;;;;;;6293699;22;19999;-66
2022/10/12 08:49:05;;;;;;;14.82;11.23;;;14.60;99.90;;;;;;6294845;22;20011;-65
2022/10/12 08:51:44;;;;;;;15.18;11.75;;;14.60;99.90;;;;;;6270505;22;20015;-66
2022/10/12 08:54:16;;;;;;;16.67;12.60;;;14.70;99.90;;;;;;6266662;22;20042;-65
2022/10/12 08:56:42;;;;;;;18.00;11.15;;;14.70;99.90;;;;;;6293829;22;20007;-65
2022/10/12 08:59:12;;;;;;;12.70;10.82;;;14.70;99.90;;;;;;6295931;22;20004;-66
2022/10/12 09:02:24;;;;;;;12.15;10.75;;;14.80;99.90;;;;;;6293457;22;20183;-65
2022/10/12 09:04:59;;;;;;;13.32;11.13;;;14.80;99.90;;;;;;6293917;22;20027;-65
2022/10/12 09:07:53;;;;;;;14.00;11.45;;;14.80;99.90;;;;;;6295826;22;20053;-65
2022/10/12 09:10:44;;;;;;;13.32;10.80;;;14.80;99.90;;;;;;6297300;22;20014;-65
2022/10/12 09:13:30;;;;;;;14.15;11.38;;;14.80;99.90;;;;;;6298481;22;20000;-65
2022/10/12 09:16:08;;;;;;;15.07;12.23;;;14.90;99.90;;;;;;6296699;22;19996;-66
2022/10/12 09:18:42;;;;;;;13.60;11.57;;;14.90;99.90;;;;;;6296969;22;20011;-66
2022/10/12 09:21:16;;;;;;;12.90;11.55;;;14.90;99.90;;;;;;6295935;22;20011;-66
2022/10/12 09:23:43;;;;;;;15.07;12.32;;;15.00;99.90;;;;;;6298497;22;20004;-66
2022/10/12 09:26:15;;;;;;;14.40;12.32;;;15.00;99.90;;;;;;6269436;22;20426;-66
2022/10/12 09:29:03;;;;;;;16.67;13.40;;;15.00;99.90;;;;;;6298674;22;20278;-66
2022/10/12 09:31:56;;;;;;;17.33;12.55;;;15.00;99.90;;;;;;6296656;22;20011;-66
2022/10/12 09:34:23;;;;;;;15.23;11.82;;;15.00;99.90;;;;;;6297708;22;20003;-66
2022/10/12 09:36:49;;;;;;;15.52;12.35;;;15.10;99.90;;;;;;6298249;22;20678;-65
2022/10/12 09:39:21;;;;;;;17.45;11.88;;;15.10;99.90;;;;;;6296449;22;20093;-65
2022/10/12 09:41:48;;;;;;;;;;;15.10;99.90;;;;;;6298847;22;20045;-65
2022/10/12 09:44:46;;;;;;;17.83;12.38;;;15.10;99.90;;;;;;6298431;22;19911;-66
2022/10/12 09:47:22;;;;;;;17.85;12.43;;;15.00;99.90;;;;;;6295291;22;20003;-65
2022/10/12 09:49:49;;;;;;;14.07;12.25;;;15.10;99.90;;;;;;6298511;22;20302;-66
2022/10/12 09:52:19;;;;;;;14.98;12.48;;;15.10;99.90;;;;;;6297601;22;20502;-65
2022/10/12 09:54:53;;;;;;;15.35;12.50;;;15.00;99.90;;;;;;6297476;22;20014;-66
2022/10/12 09:57:36;;;;;;;18.27;13.27;;;15.00;99.90;;;;;;6297229;22;20013;-66
2022/10/12 10:00:23;;;;;;;15.27;12.35;;;15.00;99.90;;;;;;6298498;22;19999;-66
2022/10/12 10:02:50;;;;;;;14.75;12.77;;;15.00;99.90;;;;;;6270276;22;20023;-65
2022/10/12 10:05:25;;;;;;;13.75;12.35;;;15.00;99.90;;;;;;6295528;22;20025;-67
2022/10/12 10:07:52;;;;;;;14.65;12.82;;;15.00;99.90;;;;;;6296695;22;20470;-65
2022/10/12 10:10:22;;;;;;;15.18;13.57;;;15.00;99.90;;;;;;6295823;22;20375;-66
2022/10/12 10:12:49;;;;;;;15.02;13.45;;;15.00;99.90;;;;;;6296630;22;20003;-66
2022/10/12 10:15:22;;;;;;;14.88;13.30;;;15.00;99.90;;;;;;6296527;22;20007;-65
2022/10/12 10:17:52;;;;;;;14.07;12.55;;;15.00;99.90;;;;;;6297536;22;19995;-65
2022/10/12 10:20:26;;;;;;;18.23;12.32;;;15.10;99.90;;;;;;6295519;22;20046;-65
2022/10/12 10:22:51;;;;;;;13.93;12.55;;;15.10;99.90;;;;;;6267346;22;20003;-66
2022/10/12 10:25:23;;;;;;;15.70;13.00;;;15.10;99.90;;;;;;6270661;22;20019;-65
2022/10/12 10:27:50;;;;;;;16.25;12.75;;;15.10;99.90;;;;;;6297105;22;20395;-66
2022/10/12 10:30:16;;;;;;;19.25;13.45;;;15.20;99.90;;;;;;6296845;22;20519;-66
2022/10/12 10:32:45;;;;;;;14.68;12.70;;;15.10;99.90;;;;;;6296732;22;20041;-66
2022/10/12 10:35:11;;;;;;;14.48;12.95;;;15.20;99.90;;;;;;6297241;22;19999;-66
2022/10/12 10:37:38;;;;;;;16.48;12.75;;;15.20;99.90;;;;;;6295159;22;20007;-66
2022/10/12 10:40:04;;;;;;;17.35;14.07;;;15.20;99.90;;;;;;6295437;22;20252;-66
2022/10/12 10:42:32;;;;;;;16.92;14.48;;;15.10;99.90;;;;;;6270481;22;20471;-66
2022/10/12 10:45:07;;;;;;;16.00;14.18;;;15.10;99.90;;;;;;6265140;22;20000;-66
2022/10/12 10:47:41;;;;;;;22.17;16.00;;;15.10;99.90;;;;;;6296988;22;20008;-66
2022/10/12 10:50:26;;;;;;;16.95;14.77;;;15.20;99.90;;;;;;6297647;22;20026;-66
2022/10/12 10:52:55;;;;;;;18.35;14.00;;;15.20;99.90;;;;;;6297029;22;20514;-66
2022/10/12 10:55:42;;;;;;;15.27;13.68;;;15.20;99.90;;;;;;6296571;22;20388;-66
2022/10/12 10:58:32;;;;;;;16.98;13.93;;;15.20;99.90;;;;;;6297098;22;20003;-66
2022/10/12 11:01:04;;;;;;;15.75;14.07;;;15.20;99.90;;;;;;6296011;22;20010;-73
2022/10/12 11:03:51;;;;;;;17.23;14.77;;;15.20;99.90;;;;;;6297685;22;20083;-73
2022/10/12 11:06:39;;;;;;;17.70;14.50;;;15.20;99.90;;;;;;6298068;22;20084;-73
2022/10/12 11:09:19;;;;;;;17.17;15.00;;;15.30;99.90;;;;;;6297392;22;19999;-73
2022/10/12 11:11:52;;;;;;;16.75;15.05;;;15.30;99.90;;;;;;6298114;22;20459;-71
2022/10/12 11:14:24;;;;;;;18.73;15.57;;;15.20;99.90;;;;;;6298572;22;20014;-72
2022/10/12 11:16:56;;;;;;;17.55;15.75;;;15.20;99.90;;;;;;6292503;22;20011;-72
2022/10/12 11:19:50;;;;;;;19.63;16.40;;;15.10;99.90;;;;;;6297636;22;20436;-72
2022/10/12 11:22:24;;;;;;;18.92;15.93;;;15.10;99.90;;;;;;6297143;22;20715;-72
2022/10/12 11:24:53;;;;;;;19.55;15.38;;;15.10;99.90;;;;;;6267466;22;20011;-73
2022/10/12 11:27:37;;;;;;;24.08;17.50;;;15.10;99.90;;;;;;6297922;22;20322;-73
2022/10/12 11:30:12;;;;;;;21.65;17.60;;;15.10;99.90;;;;;;6297818;22;20002;-73
2022/10/12 11:32:42;;;;;;;21.25;17.35;;;15.20;99.90;;;;;;6295664;22;20504;-72
2022/10/12 11:35:35;;;;;;;20.10;18.00;;;15.20;99.90;;;;;;6297409;22;20027;-72
2022/10/12 11:38:29;;;;;;;18.92;16.38;;;15.20;99.90;;;;;;6288344;22;20019;-72
2022/10/12 11:41:01;;;;;;;19.15;16.48;;;15.20;99.90;;;;;;6295895;22;20552;-72
2022/10/12 11:43:33;;;;;;;22.52;16.40;;;15.20;99.90;;;;;;6297921;22;20000;-72
2022/10/12 11:46:04;;;;;;;17.65;14.38;;;15.20;99.90;;;;;;6294640;22;20005;-72
2022/10/12 11:48:38;;;;;;;20.20;16.55;;;15.20;99.90;;;;;;6297508;22;20007;-72
2022/10/12 11:51:04;;;;;;;16.60;14.73;;;15.30;99.90;;;;;;6295443;22;20575;-72
2022/10/12 11:53:45;;;;;;;17.38;14.43;;;15.30;99.90;;;;;;6298601;22;20022;-72
2022/10/12 11:56:22;;;;;;;17.63;14.82;;;15.30;99.90;;;;;;6299240;22;20003;-72
2022/10/12 11:58:53;;;;;;;16.23;14.25;;;15.30;99.90;;;;;;6297508;22;19999;-72
2022/10/12 12:01:36;;;;;;;17.95;13.77;;;15.30;99.90;;;;;;6297678;22;20515;-72
2022/10/12 12:04:05;;;;;;;17.65;14.02;;;15.30;99.90;;;;;;6292436;22;20026;-72
2022/10/12 12:06:31;;;;;;;15.38;13.75;;;15.30;99.90;;;;;;6292423;22;20007;-72
2022/10/12 12:09:02;;;;;;;15.82;13.13;;;15.40;99.90;;;;;;6292231;22;20013;-72
2022/10/12 12:11:30;;;;;;;15.73;13.98;;;15.40;99.90;;;;;;6294457;22;20014;-72
2022/10/12 12:14:20;;;;;;;16.85;13.98;;;15.40;99.90;;;;;;6294217;22;19995;-73
2022/10/12 12:16:48;;;;;;;14.38;12.88;;;15.40;99.90;;;;;;6292964;22;20053;-72
2022/10/12 12:19:15;;;;;;;15.07;13.48;;;15.50;99.90;;;;;;6293076;22;20061;-72
2022/10/12 12:22:11;;;;;;;15.02;13.10;;;15.40;99.90;;;;;;6295054;22;20007;-72
2022/10/12 12:24:38;;;;;;;14.07;12.68;;;15.30;99.90;;;;;;6231684;22;20042;-72
2022/10/12 12:27:25;;;;;;;14.40;12.93;;;15.40;99.90;;;;;;6294853;22;20616;-72
2022/10/12 12:29:52;;;;;;;15.80;13.93;;;15.40;99.90;;;;;;6265299;22;20095;-72
2022/10/12 12:32:18;;;;;;;16.30;14.60;;;15.40;99.90;;;;;;6295742;22;20031;-72
2022/10/12 12:34:56;;;;;;;17.20;14.43;;;15.30;99.90;;;;;;6297529;22;20034;-72
2022/10/12 12:37:27;;;;;;;16.25;14.57;;;15.30;99.90;;;;;;6296611;22;20068;-72
2022/10/12 12:39:56;;;;;;;14.98;13.48;;;15.30;99.90;;;;;;6268382;22;20787;-72
2022/10/12 12:42:25;;;;;;;15.57;13.73;;;15.30;99.90;;;;;;6297029;22;20079;-72
2022/10/12 12:44:50;;;;;;;15.70;14.07;;;15.30;99.90;;;;;;6299648;22;20043;-72
2022/10/12 12:47:21;;;;;;;15.88;13.20;;;15.40;99.90;;;;;;6298566;22;20031;-72
2022/10/12 12:49:46;;;;;;;16.10;13.07;;;15.40;99.90;;;;;;6296672;22;20011;-72
2022/10/12 12:52:23;;;;;;;15.55;13.85;;;15.40;99.90;;;;;;6297613;22;20023;-71